METAR AND TAF INFORMATION
METAR FOR TFFF
ADDS - METARS form results

(2038 UTC 28 March 2020)
Data provider http://aviationweather.gov/metar/data/
 
METAR text: TFFF 282030Z AUTO 10011KT 9999 BKN027 BKN032 BKN088 28/22 Q1013 NOSIG
Conditions at: TFFF (LE LAMENTIN/MART, MQ) observed 2030 UTC 28 March 2020
Temperature: 28.0°C (82°F)
Dewpoint: 22.0°C (72°F) [RH = 70%]
Pressure (altimeter): 29.91 inches Hg (1013.0 mb)
Winds: from the E (100 degrees) at 13 MPH (11 knots; 5.7 m/s)
Visibility: 6 or more miles (10+ km)
Ceiling: 2700 feet AGL
Clouds: broken clouds at 2700 feet AGL
broken clouds at 3200 feet AGL
broken clouds at 8800 feet AGL
Weather: no significant weather observed at this time

METAR text: TFFF 282000Z AUTO 08010KT 040V100 9999 FEW031 SCT088 29/22 Q1013 NOSIG
Conditions at: TFFF (LE LAMENTIN/MART, MQ) observed 2000 UTC 28 March 2020
Temperature: 29.0°C (84°F)
Dewpoint: 22.0°C (72°F) [RH = 66%]
Pressure (altimeter): 29.91 inches Hg (1013.0 mb)
Winds: from the E (80 degrees) at 12 MPH (10 knots; 5.1 m/s)
Visibility: 6 or more miles (10+ km)
Ceiling: at least 12,000 feet AGL
Clouds: few clouds at 3100 feet AGL
scattered clouds at 8800 feet AGL
Weather: no significant weather observed at this time

Forecast for: TFFF (LE LAMENTIN/MART, MQ)
Text: TAF TFFF 281700Z 2818/2918 11012KT 9999 SCT035
Forecast period: 1800 UTC 28 March 2020 to 1800 UTC 29 March 2020
Forecast type: FROM: standard forecast or significant change
Winds: from the ESE (110 degrees) at 14 MPH (12 knots; 6.2 m/s)
Visibility: 6 or more miles 10+ km)
Ceiling: at least 12,000 feet AGL
Clouds: scattered clouds at 3500 feet AGL
Weather: no significant weather forecast for this period
Text: PROB30
Forecast period: 0300 to 1200 UTC 29 March 2020
Forecast type: TEMPORARY: The following changes expected for less than half the time period
Visibility: 2.49 miles (4.01 km)
Ceiling: 2500 feet AGL
Clouds: scattered clouds at 2000 feet AGL
broken clouds at 2500 feet AGL
Weather: SHRA  (rain showers)
Text: TEMPO 2903/2912 4000 SHRA SCT020TCU BKN025
Forecast period: 1400 to 1800 UTC 29 March 2020
Forecast type: TEMPORARY: The following changes expected for less than half the time period
Winds: from the E (80 degrees) at 17 MPH (15 knots; 7.7 m/s)
gusting to 29 MPH (25 knots; 12.9 m/s)
Visibility: missing
Ceiling: unknown
Clouds: missing
Weather: no significant weather forecast for this period

 AIRPORT MAP

 RUNWAY INFORMATION
Runway 10 Runway length 10826 ft Runway width 147 ft
Runway elevation 10 ft Runway displaced threshold 0 ft Runway heading 80
Runway 28 Runway length 10826 ft Runway width 147 ft
Runway elevation 14 ft Runway displaced threshold 984 ft Runway heading 260

 AIRPORT FREQUENCIES
Type APP Name FORT DE FR Frequency 121 MHZ
Type ATIS Name ATIS Frequency 127.85 MHZ
Type GND Name GND Frequency 121.9 MHZ
Type TWR Name FORT DE FR Frequency 118.5 MHZ

 AIRPORT NEAR NAVIGATION AIDS
Type VOR-DME Name Fort De France Frequency 113300 KHZ
Type NDB Name Fort De France Frequency 329 KHZ